sensor_id;sensor_type;location;lat;lon;timestamp;pressure;altitude;pressure_sealevel;temperature;humidity
48364;BME280;34170;54.364;18.582;2023-01-16T00:01:57;98365.19;;;3.53;100.00
48364;BME280;34170;54.364;18.582;2023-01-16T00:04:24;98376.09;;;3.50;100.00
48364;BME280;34170;54.364;18.582;2023-01-16T00:06:52;98365.22;;;3.43;100.00
48364;BME280;34170;54.364;18.582;2023-01-16T00:09:20;98389.09;;;3.53;100.00
48364;BME280;34170;54.364;18.582;2023-01-16T00:11:47;98382.63;;;3.56;100.00
48364;BME280;34170;54.364;18.582;2023-01-16T00:14:15;98363.94;;;3.48;100.00
48364;BME280;34170;54.364;18.582;2023-01-16T00:16:43;98393.53;;;3.62;100.00
48364;BME280;34170;54.364;18.582;2023-01-16T00:19:10;98376.22;;;3.49;100.00
48364;BME280;34170;54.364;18.582;2023-01-16T00:21:37;98386.88;;;3.49;100.00
48364;BME280;34170;54.364;18.582;2023-01-16T00:24:05;98379.06;;;3.47;100.00
48364;BME280;34170;54.364;18.582;2023-01-16T00:26:36;98391.81;;;3.43;100.00
48364;BME280;34170;54.364;18.582;2023-01-16T00:29:03;98390.31;;;3.31;100.00
48364;BME280;34170;54.364;18.582;2023-01-16T00:31:30;98378.19;;;3.47;100.00
48364;BME280;34170;54.364;18.582;2023-01-16T00:33:58;98393.19;;;3.38;100.00
48364;BME280;34170;54.364;18.582;2023-01-16T00:36:25;98381.59;;;3.39;100.00
48364;BME280;34170;54.364;18.582;2023-01-16T00:38:53;98383.91;;;3.24;100.00
48364;BME280;34170;54.364;18.582;2023-01-16T00:41:22;98380.56;;;3.22;100.00
48364;BME280;34170;54.364;18.582;2023-01-16T00:43:49;98396.75;;;3.29;100.00
48364;BME280;34170;54.364;18.582;2023-01-16T00:46:17;98384.72;;;3.24;100.00
48364;BME280;34170;54.364;18.582;2023-01-16T00:48:45;98391.34;;;3.11;100.00
48364;BME280;34170;54.364;18.582;2023-01-16T00:51:12;98389.09;;;3.16;100.00
48364;BME280;34170;54.364;18.582;2023-01-16T00:53:40;98379.44;;;3.15;100.00
48364;BME280;34170;54.364;18.582;2023-01-16T00:56:07;98390.47;;;3.30;100.00
48364;BME280;34170;54.364;18.582;2023-01-16T00:58:34;98392.84;;;3.23;100.00
48364;BME280;34170;54.364;18.582;2023-01-16T01:01:03;98379.34;;;3.07;100.00
48364;BME280;34170;54.364;18.582;2023-01-16T01:03:31;98393.00;;;3.21;100.00
48364;BME280;34170;54.364;18.582;2023-01-16T01:05:58;98381.53;;;3.11;100.00
48364;BME280;34170;54.364;18.582;2023-01-16T01:08:26;98381.53;;;3.21;100.00
48364;BME280;34170;54.364;18.582;2023-01-16T01:10:53;98397.19;;;3.14;100.00
48364;BME280;34170;54.364;18.582;2023-01-16T01:13:21;98379.47;;;3.05;100.00
48364;BME280;34170;54.364;18.582;2023-01-16T01:15:48;98384.78;;;3.05;100.00
48364;BME280;34170;54.364;18.582;2023-01-16T01:18:15;98394.44;;;3.06;100.00
48364;BME280;34170;54.364;18.582;2023-01-16T01:20:43;98391.88;;;3.14;100.00
48364;BME280;34170;54.364;18.582;2023-01-16T01:23:10;98385.88;;;3.12;100.00
48364;BME280;34170;54.364;18.582;2023-01-16T01:25:38;98400.31;;;3.10;100.00
48364;BME280;34170;54.364;18.582;2023-01-16T01:28:05;98385.06;;;3.02;100.00
48364;BME280;34170;54.364;18.582;2023-01-16T01:30:33;98399.44;;;3.09;100.00
48364;BME280;34170;54.364;18.582;2023-01-16T01:33:00;98394.03;;;3.01;100.00
48364;BME280;34170;54.364;18.582;2023-01-16T01:35:28;98414.97;;;3.04;100.00
48364;BME280;34170;54.364;18.582;2023-01-16T01:37:55;98406.31;;;3.02;100.00
48364;BME280;34170;54.364;18.582;2023-01-16T01:40:23;98399.34;;;3.01;100.00
48364;BME280;34170;54.364;18.582;2023-01-16T01:42:51;98406.03;;;3.05;100.00
48364;BME280;34170;54.364;18.582;2023-01-16T01:45:27;98389.03;;;2.88;100.00
48364;BME280;34170;54.364;18.582;2023-01-16T01:50:47;98414.44;;;2.91;100.00
48364;BME280;34170;54.364;18.582;2023-01-16T01:56:10;98406.91;;;2.96;100.00
48364;BME280;34170;54.364;18.582;2023-01-16T01:58:39;98410.53;;;2.95;100.00
48364;BME280;34170;54.364;18.582;2023-01-16T02:01:12;98405.09;;;2.86;100.00
48364;BME280;34170;54.364;18.582;2023-01-16T02:03:44;98414.19;;;2.74;100.00
48364;BME280;34170;54.364;18.582;2023-01-16T02:06:19;98418.38;;;2.86;100.00
48364;BME280;34170;54.364;18.582;2023-01-16T02:08:48;98433.06;;;2.71;100.00
48364;BME280;34170;54.364;18.582;2023-01-16T02:11:34;98425.09;;;2.81;100.00
48364;BME280;34170;54.364;18.582;2023-01-16T02:14:07;98426.19;;;2.78;100.00
48364;BME280;34170;54.364;18.582;2023-01-16T02:16:36;98426.50;;;2.65;100.00
48364;BME280;34170;54.364;18.582;2023-01-16T02:36:32;98444.25;;;2.65;100.00
48364;BME280;34170;54.364;18.582;2023-01-16T02:39:32;98455.28;;;2.70;100.00
48364;BME280;34170;54.364;18.582;2023-01-16T02:45:01;98457.78;;;2.42;100.00
48364;BME280;34170;54.364;18.582;2023-01-16T02:47:35;98456.81;;;2.53;100.00
48364;BME280;34170;54.364;18.582;2023-01-16T02:50:23;98456.09;;;2.41;100.00
48364;BME280;34170;54.364;18.582;2023-01-16T02:53:07;98459.72;;;2.40;100.00
48364;BME280;34170;54.364;18.582;2023-01-16T02:55:46;98451.63;;;2.52;100.00
48364;BME280;34170;54.364;18.582;2023-01-16T02:58:17;98453.59;;;2.40;100.00
48364;BME280;34170;54.364;18.582;2023-01-16T03:00:51;98451.91;;;2.39;100.00
48364;BME280;34170;54.364;18.582;2023-01-16T03:06:14;98465.03;;;2.40;100.00
48364;BME280;34170;54.364;18.582;2023-01-16T03:11:42;98460.66;;;2.20;100.00
48364;BME280;34170;54.364;18.582;2023-01-16T03:17:08;98464.34;;;2.38;100.00
48364;BME280;34170;54.364;18.582;2023-01-16T03:22:59;98473.69;;;2.52;100.00
48364;BME280;34170;54.364;18.582;2023-01-16T03:25:45;98463.66;;;2.36;100.00
48364;BME280;34170;54.364;18.582;2023-01-16T03:28:40;98476.06;;;2.36;100.00
48364;BME280;34170;54.364;18.582;2023-01-16T03:31:40;98475.06;;;2.27;100.00
48364;BME280;34170;54.364;18.582;2023-01-16T03:34:19;98471.75;;;2.35;100.00
48364;BME280;34170;54.364;18.582;2023-01-16T03:39:27;98478.13;;;2.22;100.00
48364;BME280;34170;54.364;18.582;2023-01-16T03:42:01;98481.47;;;2.24;100.00
48364;BME280;34170;54.364;18.582;2023-01-16T03:44:35;98482.31;;;2.25;100.00
48364;BME280;34170;54.364;18.582;2023-01-16T03:47:07;98488.63;;;2.34;100.00
48364;BME280;34170;54.364;18.582;2023-01-16T03:49:40;98497.69;;;2.31;100.00
48364;BME280;34170;54.364;18.582;2023-01-16T03:52:12;98496.44;;;2.25;100.00
48364;BME280;34170;54.364;18.582;2023-01-16T03:54:46;98484.28;;;2.23;100.00
48364;BME280;34170;54.364;18.582;2023-01-16T03:57:31;98487.06;;;2.21;100.00
48364;BME280;34170;54.364;18.582;2023-01-16T03:59:59;98489.88;;;2.29;100.00
48364;BME280;34170;54.364;18.582;2023-01-16T04:02:49;98494.09;;;2.42;100.00
48364;BME280;34170;54.364;18.582;2023-01-16T04:05:25;98497.00;;;2.39;100.00
48364;BME280;34170;54.364;18.582;2023-01-16T04:08:14;98496.22;;;2.07;100.00
48364;BME280;34170;54.364;18.582;2023-01-16T04:10:46;98486.78;;;2.15;100.00
48364;BME280;34170;54.364;18.582;2023-01-16T04:13:18;98500.69;;;1.97;100.00
48364;BME280;34170;54.364;18.582;2023-01-16T04:15:51;98486.75;;;2.05;100.00
48364;BME280;34170;54.364;18.582;2023-01-16T04:18:22;98498.75;;;2.09;100.00
48364;BME280;34170;54.364;18.582;2023-01-16T04:20:52;98499.56;;;2.00;100.00
48364;BME280;34170;54.364;18.582;2023-01-16T04:23:20;98485.47;;;1.99;100.00
48364;BME280;34170;54.364;18.582;2023-01-16T04:25:47;98495.81;;;2.02;100.00
48364;BME280;34170;54.364;18.582;2023-01-16T04:28:15;98506.47;;;1.81;100.00
48364;BME280;34170;54.364;18.582;2023-01-16T04:30:42;98495.28;;;1.78;100.00
48364;BME280;34170;54.364;18.582;2023-01-16T04:33:10;98499.97;;;1.95;100.00
48364;BME280;34170;54.364;18.582;2023-01-16T04:35:37;98509.66;;;2.16;100.00
48364;BME280;34170;54.364;18.582;2023-01-16T04:38:04;98519.25;;;2.07;100.00
48364;BME280;34170;54.364;18.582;2023-01-16T04:40:32;98511.41;;;1.96;100.00
48364;BME280;34170;54.364;18.582;2023-01-16T04:42:59;98518.53;;;1.95;100.00
48364;BME280;34170;54.364;18.582;2023-01-16T04:45:27;98519.59;;;2.23;100.00
48364;BME280;34170;54.364;18.582;2023-01-16T04:47:54;98521.28;;;2.34;100.00
48364;BME280;34170;54.364;18.582;2023-01-16T04:50:22;98511.34;;;2.17;100.00
48364;BME280;34170;54.364;18.582;2023-01-16T04:52:49;98515.41;;;2.21;100.00
48364;BME280;34170;54.364;18.582;2023-01-16T04:55:17;98503.91;;;2.10;100.00
48364;BME280;34170;54.364;18.582;2023-01-16T04:57:44;98511.56;;;2.04;100.00
48364;BME280;34170;54.364;18.582;2023-01-16T05:00:12;98502.06;;;2.01;100.00
48364;BME280;34170;54.364;18.582;2023-01-16T05:02:39;98515.66;;;2.18;100.00
48364;BME280;34170;54.364;18.582;2023-01-16T05:05:07;98517.22;;;1.80;100.00
48364;BME280;34170;54.364;18.582;2023-01-16T05:07:35;98516.91;;;2.14;100.00
48364;BME280;34170;54.364;18.582;2023-01-16T05:10:02;98520.19;;;1.96;100.00
48364;BME280;34170;54.364;18.582;2023-01-16T05:12:30;98529.09;;;1.85;100.00
48364;BME280;34170;54.364;18.582;2023-01-16T05:14:57;98519.66;;;1.71;100.00
48364;BME280;34170;54.364;18.582;2023-01-16T05:17:25;98527.94;;;1.78;100.00
48364;BME280;34170;54.364;18.582;2023-01-16T05:19:53;98527.94;;;1.78;100.00
48364;BME280;34170;54.364;18.582;2023-01-16T05:22:21;98524.63;;;1.86;100.00
48364;BME280;34170;54.364;18.582;2023-01-16T05:24:48;98524.63;;;1.86;100.00
48364;BME280;34170;54.364;18.582;2023-01-16T05:27:16;98523.47;;;1.79;100.00
48364;BME280;34170;54.364;18.582;2023-01-16T05:29:43;98527.78;;;1.49;100.00
48364;BME280;34170;54.364;18.582;2023-01-16T05:32:10;98528.94;;;1.56;100.00
48364;BME280;34170;54.364;18.582;2023-01-16T05:34:38;98537.63;;;1.68;100.00
48364;BME280;34170;54.364;18.582;2023-01-16T05:37:05;98538.19;;;1.62;100.00
48364;BME280;34170;54.364;18.582;2023-01-16T05:39:33;98540.47;;;1.45;100.00
48364;BME280;34170;54.364;18.582;2023-01-16T05:42:00;98545.22;;;1.51;100.00
48364;BME280;34170;54.364;18.582;2023-01-16T05:44:28;98539.72;;;1.64;100.00
48364;BME280;34170;54.364;18.582;2023-01-16T05:46:55;98540.38;;;1.57;100.00
48364;BME280;34170;54.364;18.582;2023-01-16T05:49:23;98540.81;;;1.83;100.00
48364;BME280;34170;54.364;18.582;2023-01-16T05:51:50;98535.53;;;1.93;100.00
48364;BME280;34170;54.364;18.582;2023-01-16T05:54:18;98548.41;;;1.97;100.00
48364;BME280;34170;54.364;18.582;2023-01-16T05:56:45;98542.81;;;2.00;100.00
48364;BME280;34170;54.364;18.582;2023-01-16T05:59:12;98544.25;;;2.14;100.00
48364;BME280;34170;54.364;18.582;2023-01-16T06:01:40;98549.63;;;2.24;100.00
48364;BME280;34170;54.364;18.582;2023-01-16T06:04:07;98546.66;;;2.27;100.00
48364;BME280;34170;54.364;18.582;2023-01-16T06:06:35;98548.25;;;2.39;100.00
48364;BME280;34170;54.364;18.582;2023-01-16T06:09:02;98547.28;;;2.40;100.00
48364;BME280;34170;54.364;18.582;2023-01-16T06:11:30;98553.13;;;2.34;100.00
48364;BME280;34170;54.364;18.582;2023-01-16T06:13:57;98537.00;;;2.16;100.00
48364;BME280;34170;54.364;18.582;2023-01-16T06:16:31;98549.63;;;2.24;100.00
48364;BME280;34170;54.364;18.582;2023-01-16T06:18:58;98554.03;;;2.14;100.00
48364;BME280;34170;54.364;18.582;2023-01-16T06:21:25;98553.69;;;2.38;100.00
48364;BME280;34170;54.364;18.582;2023-01-16T06:23:53;98554.09;;;2.33;100.00
48364;BME280;34170;54.364;18.582;2023-01-16T06:26:20;98554.75;;;2.16;100.00
48364;BME280;34170;54.364;18.582;2023-01-16T06:28:48;98559.66;;;2.20;100.00
48364;BME280;34170;54.364;18.582;2023-01-16T06:31:15;98541.09;;;2.20;100.00
48364;BME280;34170;54.364;18.582;2023-01-16T06:33:43;98544.25;;;2.04;100.00
48364;BME280;34170;54.364;18.582;2023-01-16T06:36:10;98543.38;;;2.04;100.00
48364;BME280;34170;54.364;18.582;2023-01-16T06:38:37;98545.75;;;1.97;100.00
48364;BME280;34170;54.364;18.582;2023-01-16T06:41:05;98551.50;;;2.02;100.00
48364;BME280;34170;54.364;18.582;2023-01-16T06:43:32;98547.59;;;2.06;100.00
48364;BME280;34170;54.364;18.582;2023-01-16T06:46:00;98554.63;;;1.86;100.00
48364;BME280;34170;54.364;18.582;2023-01-16T06:48:27;98557.31;;;1.96;100.00
48364;BME280;34170;54.364;18.582;2023-01-16T06:50:55;98538.50;;;1.68;100.00
48364;BME280;34170;54.364;18.582;2023-01-16T06:53:22;98545.00;;;1.64;100.00
48364;BME280;34170;54.364;18.582;2023-01-16T06:55:49;98546.59;;;1.46;100.00
48364;BME280;34170;54.364;18.582;2023-01-16T06:58:17;98544.19;;;1.43;100.00
48364;BME280;34170;54.364;18.582;2023-01-16T07:00:45;98552.34;;;1.51;100.00
48364;BME280;34170;54.364;18.582;2023-01-16T07:03:18;98546.53;;;1.36;100.00
48364;BME280;34170;54.364;18.582;2023-01-16T07:05:45;98551.97;;;1.35;100.00
48364;BME280;34170;54.364;18.582;2023-01-16T07:08:13;98561.84;;;1.32;100.00
48364;BME280;34170;54.364;18.582;2023-01-16T07:10:41;98554.66;;;1.23;100.00
48364;BME280;34170;54.364;18.582;2023-01-16T07:13:08;98549.09;;;1.26;100.00
48364;BME280;34170;54.364;18.582;2023-01-16T07:15:37;98551.50;;;1.29;100.00
48364;BME280;34170;54.364;18.582;2023-01-16T07:18:24;98544.91;;;1.45;100.00
48364;BME280;34170;54.364;18.582;2023-01-16T07:21:12;98546.47;;;1.47;100.00
48364;BME280;34170;54.364;18.582;2023-01-16T07:24:04;98540.34;;;1.47;100.00
48364;BME280;34170;54.364;18.582;2023-01-16T07:26:34;98534.88;;;1.69;100.00
48364;BME280;34170;54.364;18.582;2023-01-16T07:29:04;98546.94;;;1.83;100.00
48364;BME280;34170;54.364;18.582;2023-01-16T07:31:32;98528.81;;;1.88;100.00
48364;BME280;34170;54.364;18.582;2023-01-16T07:34:00;98543.34;;;1.94;100.00
48364;BME280;34170;54.364;18.582;2023-01-16T07:36:28;98541.94;;;1.90;100.00
48364;BME280;34170;54.364;18.582;2023-01-16T07:38:55;98550.91;;;1.99;100.00
48364;BME280;34170;54.364;18.582;2023-01-16T07:41:23;98542.66;;;1.92;100.00
48364;BME280;34170;54.364;18.582;2023-01-16T07:43:50;98548.44;;;2.07;100.00
48364;BME280;34170;54.364;18.582;2023-01-16T07:46:18;98544.75;;;1.98;100.00
48364;BME280;34170;54.364;18.582;2023-01-16T07:48:45;98557.06;;;1.99;100.00
48364;BME280;34170;54.364;18.582;2023-01-16T07:51:13;98548.69;;;2.04;100.00
48364;BME280;34170;54.364;18.582;2023-01-16T07:53:40;98544.31;;;2.34;100.00
48364;BME280;34170;54.364;18.582;2023-01-16T07:56:08;98547.25;;;2.31;100.00
48364;BME280;34170;54.364;18.582;2023-01-16T07:58:35;98561.88;;;2.15;100.00
48364;BME280;34170;54.364;18.582;2023-01-16T08:01:04;98550.69;;;2.12;100.00
48364;BME280;34170;54.364;18.582;2023-01-16T08:03:33;98555.88;;;2.23;100.00
48364;BME280;34170;54.364;18.582;2023-01-16T08:06:01;98564.28;;;2.28;100.00
48364;BME280;34170;54.364;18.582;2023-01-16T08:08:30;98560.69;;;2.48;100.00
48364;BME280;34170;54.364;18.582;2023-01-16T08:10:59;98571.28;;;2.39;100.00
48364;BME280;34170;54.364;18.582;2023-01-16T08:13:47;98578.13;;;2.32;100.00
48364;BME280;34170;54.364;18.582;2023-01-16T08:16:15;98570.66;;;2.16;100.00
48364;BME280;34170;54.364;18.582;2023-01-16T08:18:42;98581.03;;;1.98;100.00
48364;BME280;34170;54.364;18.582;2023-01-16T08:21:10;98582.78;;;2.08;100.00
48364;BME280;34170;54.364;18.582;2023-01-16T08:23:37;98585.16;;;2.12;100.00
48364;BME280;34170;54.364;18.582;2023-01-16T08:26:06;98577.69;;;1.96;100.00
48364;BME280;34170;54.364;18.582;2023-01-16T08:28:34;98582.72;;;2.39;100.00
48364;BME280;34170;54.364;18.582;2023-01-16T08:31:05;98577.97;;;3.03;100.00
48364;BME280;34170;54.364;18.582;2023-01-16T08:33:35;98575.88;;;3.16;100.00
48364;BME280;34170;54.364;18.582;2023-01-16T08:36:04;98591.34;;;2.72;100.00
48364;BME280;34170;54.364;18.582;2023-01-16T08:38:32;98573.22;;;2.77;100.00
48364;BME280;34170;54.364;18.582;2023-01-16T08:41:00;98584.34;;;2.71;100.00
48364;BME280;34170;54.364;18.582;2023-01-16T08:43:27;98585.38;;;3.19;100.00
48364;BME280;34170;54.364;18.582;2023-01-16T08:46:21;98587.19;;;3.28;100.00
48364;BME280;34170;54.364;18.582;2023-01-16T08:49:12;98589.59;;;3.12;100.00
48364;BME280;34170;54.364;18.582;2023-01-16T08:51:59;98579.84;;;3.79;100.00
48364;BME280;34170;54.364;18.582;2023-01-16T08:54:26;98598.06;;;3.74;100.00
48364;BME280;34170;54.364;18.582;2023-01-16T08:56:54;98587.13;;;3.77;100.00
48364;BME280;34170;54.364;18.582;2023-01-16T08:59:21;98594.03;;;4.72;100.00
48364;BME280;34170;54.364;18.582;2023-01-16T09:01:48;98586.69;;;5.02;100.00
48364;BME280;34170;54.364;18.582;2023-01-16T09:04:16;98595.13;;;4.97;100.00
48364;BME280;34170;54.364;18.582;2023-01-16T09:06:43;98592.72;;;6.10;100.00
48364;BME280;34170;54.364;18.582;2023-01-16T09:09:11;98590.66;;;5.78;100.00
48364;BME280;34170;54.364;18.582;2023-01-16T09:11:38;98586.72;;;5.64;100.00
48364;BME280;34170;54.364;18.582;2023-01-16T09:14:24;98589.97;;;6.28;100.00
48364;BME280;34170;54.364;18.582;2023-01-16T09:16:52;98586.16;;;6.74;100.00
48364;BME280;34170;54.364;18.582;2023-01-16T09:19:20;98586.28;;;7.64;100.00
48364;BME280;34170;54.364;18.582;2023-01-16T09:21:47;98589.75;;;7.97;94.60
48364;BME280;34170;54.364;18.582;2023-01-16T09:24:15;98579.03;;;8.14;89.08
48364;BME280;34170;54.364;18.582;2023-01-16T09:26:42;98593.59;;;7.95;90.63
48364;BME280;34170;54.364;18.582;2023-01-16T09:29:10;98586.28;;;7.56;90.77
48364;BME280;34170;54.364;18.582;2023-01-16T09:31:37;98586.28;;;7.23;90.93
48364;BME280;34170;54.364;18.582;2023-01-16T09:34:05;98570.31;;;6.80;93.53
48364;BME280;34170;54.364;18.582;2023-01-16T09:36:32;98587.41;;;6.19;95.54
48364;BME280;34170;54.364;18.582;2023-01-16T09:39:01;98569.13;;;4.64;100.00
48364;BME280;34170;54.364;18.582;2023-01-16T09:41:34;98564.16;;;3.86;100.00
48364;BME280;34170;54.364;18.582;2023-01-16T09:44:21;98575.63;;;4.97;100.00
48364;BME280;34170;54.364;18.582;2023-01-16T09:46:51;98579.97;;;5.34;100.00
48364;BME280;34170;54.364;18.582;2023-01-16T09:51:52;98576.38;;;4.71;100.00
48364;BME280;34170;54.364;18.582;2023-01-16T09:54:44;98583.00;;;4.67;100.00
48364;BME280;34170;54.364;18.582;2023-01-16T09:57:33;98578.00;;;5.00;100.00
48364;BME280;34170;54.364;18.582;2023-01-16T10:00:23;98583.16;;;5.38;100.00
48364;BME280;34170;54.364;18.582;2023-01-16T10:02:51;98572.47;;;6.00;100.00
48364;BME280;34170;54.364;18.582;2023-01-16T10:05:21;98578.06;;;6.15;100.00
48364;BME280;34170;54.364;18.582;2023-01-16T10:10:54;98571.81;;;6.32;100.00
48364;BME280;34170;54.364;18.582;2023-01-16T10:25:27;98575.44;;;5.52;100.00
48364;BME280;34170;54.364;18.582;2023-01-16T10:28:05;98567.28;;;5.28;100.00
48364;BME280;34170;54.364;18.582;2023-01-16T10:30:43;98560.13;;;5.10;100.00
48364;BME280;34170;54.364;18.582;2023-01-16T10:33:35;98565.34;;;5.82;100.00
48364;BME280;34170;54.364;18.582;2023-01-16T10:36:20;98559.78;;;6.79;98.80
48364;BME280;34170;54.364;18.582;2023-01-16T10:38:52;98554.09;;;6.74;95.56
48364;BME280;34170;54.364;18.582;2023-01-16T10:41:33;98543.81;;;7.20;90.22
48364;BME280;34170;54.364;18.582;2023-01-16T10:47:13;98551.69;;;7.21;88.45
48364;BME280;34170;54.364;18.582;2023-01-16T10:50:00;98540.13;;;7.54;87.47
48364;BME280;34170;54.364;18.582;2023-01-16T10:52:28;98553.69;;;7.19;88.10
48364;BME280;34170;54.364;18.582;2023-01-16T10:54:58;98539.00;;;6.48;92.25
48364;BME280;34170;54.364;18.582;2023-01-16T10:57:26;98538.03;;;6.57;93.66
48364;BME280;34170;54.364;18.582;2023-01-16T10:59:59;98525.03;;;5.93;97.09
48364;BME280;34170;54.364;18.582;2023-01-16T11:02:32;98519.78;;;5.76;100.00
48364;BME280;34170;54.364;18.582;2023-01-16T11:05:00;98527.03;;;5.39;100.00
48364;BME280;34170;54.364;18.582;2023-01-16T11:07:29;98525.25;;;5.74;100.00
48364;BME280;34170;54.364;18.582;2023-01-16T11:09:57;98513.09;;;5.27;100.00
48364;BME280;34170;54.364;18.582;2023-01-16T11:12:29;98517.03;;;5.93;100.00
48364;BME280;34170;54.364;18.582;2023-01-16T11:15:21;98504.66;;;6.10;100.00
48364;BME280;34170;54.364;18.582;2023-01-16T11:18:34;98516.72;;;5.62;100.00
48364;BME280;34170;54.364;18.582;2023-01-16T11:21:26;98506.06;;;5.00;100.00
48364;BME280;34170;54.364;18.582;2023-01-16T11:23:59;98495.00;;;3.95;100.00
48364;BME280;34170;54.364;18.582;2023-01-16T11:26:27;98494.19;;;4.13;100.00
48364;BME280;34170;54.364;18.582;2023-01-16T11:28:56;98484.69;;;4.10;100.00
48364;BME280;34170;54.364;18.582;2023-01-16T11:31:26;98478.44;;;4.01;100.00
48364;BME280;34170;54.364;18.582;2023-01-16T11:34:03;98478.44;;;4.29;100.00
48364;BME280;34170;54.364;18.582;2023-01-16T11:36:37;98476.34;;;3.68;100.00
48364;BME280;34170;54.364;18.582;2023-01-16T11:39:06;98480.06;;;4.12;100.00
48364;BME280;34170;54.364;18.582;2023-01-16T11:41:37;98480.50;;;3.80;100.00
48364;BME280;34170;54.364;18.582;2023-01-16T11:44:24;98482.53;;;3.49;100.00
48364;BME280;34170;54.364;18.582;2023-01-16T11:47:16;98473.00;;;3.93;100.00
48364;BME280;34170;54.364;18.582;2023-01-16T11:49:46;98463.28;;;4.02;100.00
48364;BME280;34170;54.364;18.582;2023-01-16T11:52:24;98469.19;;;3.68;100.00
48364;BME280;34170;54.364;18.582;2023-01-16T11:55:04;98460.22;;;3.32;100.00
48364;BME280;34170;54.364;18.582;2023-01-16T11:57:37;98464.56;;;3.23;100.00
48364;BME280;34170;54.364;18.582;2023-01-16T12:00:14;98458.25;;;3.34;100.00
48364;BME280;34170;54.364;18.582;2023-01-16T12:05:36;98452.53;;;3.76;100.00
48364;BME280;34170;54.364;18.582;2023-01-16T12:08:38;98444.16;;;3.71;100.00
48364;BME280;34170;54.364;18.582;2023-01-16T12:13:51;98457.22;;;2.97;100.00
48364;BME280;34170;54.364;18.582;2023-01-16T12:20:08;98444.53;;;2.62;100.00
48364;BME280;34170;54.364;18.582;2023-01-16T12:23:16;98430.97;;;2.55;100.00
48364;BME280;34170;54.364;18.582;2023-01-16T12:28:53;98426.22;;;2.69;100.00
48364;BME280;34170;54.364;18.582;2023-01-16T12:48:21;98407.38;;;2.62;100.00
48364;BME280;34170;54.364;18.582;2023-01-16T12:51:20;98409.19;;;2.42;100.00
48364;BME280;34170;54.364;18.582;2023-01-16T12:57:11;98406.09;;;2.46;100.00
48364;BME280;34170;54.364;18.582;2023-01-16T13:00:02;98399.69;;;2.49;100.00
48364;BME280;34170;54.364;18.582;2023-01-16T13:03:09;98398.97;;;2.57;100.00
48364;BME280;34170;54.364;18.582;2023-01-16T13:05:40;98388.22;;;2.48;100.00
48364;BME280;34170;54.364;18.582;2023-01-16T13:08:29;98395.78;;;2.34;100.00
48364;BME280;34170;54.364;18.582;2023-01-16T13:11:07;98392.84;;;2.46;100.00
48364;BME280;34170;54.364;18.582;2023-01-16T13:13:59;98393.81;;;2.45;100.00
48364;BME280;34170;54.364;18.582;2023-01-16T13:16:29;98391.59;;;2.70;100.00
48364;BME280;34170;54.364;18.582;2023-01-16T13:19:03;98381.09;;;2.69;100.00
48364;BME280;34170;54.364;18.582;2023-01-16T13:22:29;98390.59;;;2.52;100.00
48364;BME280;34170;54.364;18.582;2023-01-16T13:24:44;98377.75;;;2.37;100.00
48364;BME280;34170;54.364;18.582;2023-01-16T13:27:17;98385.16;;;2.53;100.00
48364;BME280;34170;54.364;18.582;2023-01-16T13:29:54;98372.72;;;2.54;100.00
48364;BME280;34170;54.364;18.582;2023-01-16T13:32:27;98377.75;;;2.57;100.00
48364;BME280;34170;54.364;18.582;2023-01-16T13:35:18;98370.91;;;2.64;100.00
48364;BME280;34170;54.364;18.582;2023-01-16T13:43:39;98375.88;;;2.96;100.00
48364;BME280;34170;54.364;18.582;2023-01-16T13:46:28;98375.09;;;2.66;100.00
48364;BME280;34170;54.364;18.582;2023-01-16T13:49:00;98361.41;;;2.52;100.00
48364;BME280;34170;54.364;18.582;2023-01-16T13:51:28;98363.94;;;2.43;100.00
48364;BME280;34170;54.364;18.582;2023-01-16T13:53:59;98359.34;;;2.45;100.00
48364;BME280;34170;54.364;18.582;2023-01-16T13:56:30;98352.75;;;2.50;100.00
48364;BME280;34170;54.364;18.582;2023-01-16T13:59:05;98347.19;;;2.53;100.00
48364;BME280;34170;54.364;18.582;2023-01-16T14:06:53;98343.53;;;2.34;100.00
48364;BME280;34170;54.364;18.582;2023-01-16T14:10:17;98345.09;;;2.27;100.00
48364;BME280;34170;54.364;18.582;2023-01-16T14:15:53;98334.22;;;2.20;100.00
48364;BME280;34170;54.364;18.582;2023-01-16T14:18:57;98345.81;;;2.29;100.00
48364;BME280;34170;54.364;18.582;2023-01-16T14:24:18;98324.84;;;2.06;100.00
48364;BME280;34170;54.364;18.582;2023-01-16T14:26:58;98329.31;;;1.96;100.00
48364;BME280;34170;54.364;18.582;2023-01-16T14:29:32;98329.88;;;1.90;100.00
48364;BME280;34170;54.364;18.582;2023-01-16T14:32:05;98313.84;;;1.92;100.00
48364;BME280;34170;54.364;18.582;2023-01-16T14:34:59;98314.94;;;1.89;100.00
48364;BME280;34170;54.364;18.582;2023-01-16T14:37:35;98321.50;;;1.85;100.00
48364;BME280;34170;54.364;18.582;2023-01-16T14:45:38;98308.22;;;1.75;100.00
48364;BME280;34170;54.364;18.582;2023-01-16T14:51:28;98311.31;;;1.70;100.00
48364;BME280;34170;54.364;18.582;2023-01-16T14:54:25;98310.59;;;1.68;100.00
48364;BME280;34170;54.364;18.582;2023-01-16T15:02:23;98305.56;;;1.65;100.00
48364;BME280;34170;54.364;18.582;2023-01-16T15:05:14;98296.22;;;1.61;100.00
48364;BME280;34170;54.364;18.582;2023-01-16T15:07:48;98288.13;;;1.53;100.00
48364;BME280;34170;54.364;18.582;2023-01-16T15:10:29;98299.28;;;1.57;100.00
48364;BME280;34170;54.364;18.582;2023-01-16T15:13:29;98302.47;;;1.50;100.00
48364;BME280;34170;54.364;18.582;2023-01-16T15:16:20;98289.25;;;1.60;100.00
48364;BME280;34170;54.364;18.582;2023-01-16T15:19:19;98286.28;;;1.44;100.00
48364;BME280;34170;54.364;18.582;2023-01-16T15:22:16;98293.09;;;1.37;100.00
48364;BME280;34170;54.364;18.582;2023-01-16T15:24:52;98290.31;;;1.38;100.00
48364;BME280;34170;54.364;18.582;2023-01-16T15:27:28;98286.13;;;1.36;100.00